sensor_id;sensor_type;location;lat;lon;timestamp;P1;durP1;ratioP1;P2;durP2;ratioP2
54372;SDS011;69157;53.094;10.016;2024-02-16T00:02:20;3.08;;;1.60;;
54372;SDS011;69157;53.094;10.016;2024-02-16T00:04:47;3.72;;;1.35;;
54372;SDS011;69157;53.094;10.016;2024-02-16T00:07:14;2.28;;;1.52;;
54372;SDS011;69157;53.094;10.016;2024-02-16T00:09:40;2.53;;;1.33;;
54372;SDS011;69157;53.094;10.016;2024-02-16T00:12:08;1.27;;;1.10;;
54372;SDS011;69157;53.094;10.016;2024-02-16T00:14:36;2.05;;;1.70;;
54372;SDS011;69157;53.094;10.016;2024-02-16T00:17:02;1.75;;;1.58;;
54372;SDS011;69157;53.094;10.016;2024-02-16T00:19:28;2.17;;;1.50;;
54372;SDS011;69157;53.094;10.016;2024-02-16T00:21:55;2.08;;;1.23;;
54372;SDS011;69157;53.094;10.016;2024-02-16T00:24:22;1.98;;;1.30;;
54372;SDS011;69157;53.094;10.016;2024-02-16T00:26:49;3.13;;;1.60;;
54372;SDS011;69157;53.094;10.016;2024-02-16T00:29:14;2.00;;;1.50;;
54372;SDS011;69157;53.094;10.016;2024-02-16T00:31:40;3.10;;;1.58;;
54372;SDS011;69157;53.094;10.016;2024-02-16T00:34:06;2.70;;;1.58;;
54372;SDS011;69157;53.094;10.016;2024-02-16T00:36:35;2.15;;;1.88;;
54372;SDS011;69157;53.094;10.016;2024-02-16T00:39:01;2.75;;;1.77;;
54372;SDS011;69157;53.094;10.016;2024-02-16T00:41:28;1.38;;;1.00;;
54372;SDS011;69157;53.094;10.016;2024-02-16T00:43:54;3.65;;;1.48;;
54372;SDS011;69157;53.094;10.016;2024-02-16T00:46:22;1.75;;;1.40;;
54372;SDS011;69157;53.094;10.016;2024-02-16T00:48:49;3.78;;;1.67;;
54372;SDS011;69157;53.094;10.016;2024-02-16T00:51:15;3.13;;;1.90;;
54372;SDS011;69157;53.094;10.016;2024-02-16T00:53:41;2.40;;;1.15;;
54372;SDS011;69157;53.094;10.016;2024-02-16T00:56:09;2.13;;;1.52;;
54372;SDS011;69157;53.094;10.016;2024-02-16T00:58:35;1.60;;;1.38;;
54372;SDS011;69157;53.094;10.016;2024-02-16T01:01:03;2.55;;;1.35;;
54372;SDS011;69157;53.094;10.016;2024-02-16T01:03:35;1.30;;;1.17;;
54372;SDS011;69157;53.094;10.016;2024-02-16T01:06:03;2.78;;;1.58;;
54372;SDS011;69157;53.094;10.016;2024-02-16T01:08:30;1.92;;;1.35;;
54372;SDS011;69157;53.094;10.016;2024-02-16T01:10:56;6.15;;;1.67;;
54372;SDS011;69157;53.094;10.016;2024-02-16T01:13:23;5.05;;;1.60;;
54372;SDS011;69157;53.094;10.016;2024-02-16T01:15:49;2.80;;;1.27;;
54372;SDS011;69157;53.094;10.016;2024-02-16T01:18:15;1.48;;;1.30;;
54372;SDS011;69157;53.094;10.016;2024-02-16T01:20:41;3.83;;;1.50;;
54372;SDS011;69157;53.094;10.016;2024-02-16T01:23:07;2.72;;;1.65;;
54372;SDS011;69157;53.094;10.016;2024-02-16T01:25:33;5.75;;;1.50;;
54372;SDS011;69157;53.094;10.016;2024-02-16T01:27:59;2.17;;;1.50;;
54372;SDS011;69157;53.094;10.016;2024-02-16T01:30:25;3.30;;;1.40;;
54372;SDS011;69157;53.094;10.016;2024-02-16T01:32:54;2.63;;;1.50;;
54372;SDS011;69157;53.094;10.016;2024-02-16T01:35:20;2.88;;;1.40;;
54372;SDS011;69157;53.094;10.016;2024-02-16T01:37:48;2.40;;;1.50;;
54372;SDS011;69157;53.094;10.016;2024-02-16T01:40:14;1.15;;;1.05;;
54372;SDS011;69157;53.094;10.016;2024-02-16T01:42:42;1.75;;;1.30;;
54372;SDS011;69157;53.094;10.016;2024-02-16T01:45:08;1.65;;;1.17;;
54372;SDS011;69157;53.094;10.016;2024-02-16T01:47:37;3.10;;;1.20;;
54372;SDS011;69157;53.094;10.016;2024-02-16T01:50:05;1.75;;;1.30;;
54372;SDS011;69157;53.094;10.016;2024-02-16T01:52:32;2.22;;;1.30;;
54372;SDS011;69157;53.094;10.016;2024-02-16T01:55:01;2.65;;;1.35;;
54372;SDS011;69157;53.094;10.016;2024-02-16T01:57:28;2.75;;;1.40;;
54372;SDS011;69157;53.094;10.016;2024-02-16T01:59:54;1.33;;;1.13;;
54372;SDS011;69157;53.094;10.016;2024-02-16T02:02:20;2.30;;;1.20;;
54372;SDS011;69157;53.094;10.016;2024-02-16T02:04:47;3.28;;;1.38;;
54372;SDS011;69157;53.094;10.016;2024-02-16T02:07:14;1.58;;;1.40;;
54372;SDS011;69157;53.094;10.016;2024-02-16T02:09:40;2.10;;;1.40;;
54372;SDS011;69157;53.094;10.016;2024-02-16T02:12:07;2.97;;;1.45;;
54372;SDS011;69157;53.094;10.016;2024-02-16T02:14:35;5.45;;;1.23;;
54372;SDS011;69157;53.094;10.016;2024-02-16T02:17:02;2.30;;;1.58;;
54372;SDS011;69157;53.094;10.016;2024-02-16T02:19:29;6.50;;;1.30;;
54372;SDS011;69157;53.094;10.016;2024-02-16T02:21:55;4.32;;;1.35;;
54372;SDS011;69157;53.094;10.016;2024-02-16T02:24:22;2.22;;;1.40;;
54372;SDS011;69157;53.094;10.016;2024-02-16T02:26:48;4.60;;;1.20;;
54372;SDS011;69157;53.094;10.016;2024-02-16T02:29:14;3.05;;;1.65;;
54372;SDS011;69157;53.094;10.016;2024-02-16T02:31:40;2.90;;;1.52;;
54372;SDS011;69157;53.094;10.016;2024-02-16T02:34:06;2.63;;;1.38;;
54372;SDS011;69157;53.094;10.016;2024-02-16T02:36:32;2.67;;;1.27;;
54372;SDS011;69157;53.094;10.016;2024-02-16T02:38:58;2.17;;;1.30;;
54372;SDS011;69157;53.094;10.016;2024-02-16T02:41:26;3.28;;;1.60;;
54372;SDS011;69157;53.094;10.016;2024-02-16T02:43:52;2.80;;;1.33;;
54372;SDS011;69157;53.094;10.016;2024-02-16T02:46:20;2.10;;;1.27;;
54372;SDS011;69157;53.094;10.016;2024-02-16T02:48:46;1.63;;;1.30;;
54372;SDS011;69157;53.094;10.016;2024-02-16T02:51:12;1.70;;;1.17;;
54372;SDS011;69157;53.094;10.016;2024-02-16T02:53:39;1.50;;;1.27;;
54372;SDS011;69157;53.094;10.016;2024-02-16T02:56:07;2.40;;;1.40;;
54372;SDS011;69157;53.094;10.016;2024-02-16T02:58:33;1.77;;;1.05;;
54372;SDS011;69157;53.094;10.016;2024-02-16T03:00:59;3.05;;;1.10;;
54372;SDS011;69157;53.094;10.016;2024-02-16T03:03:26;2.22;;;1.38;;
54372;SDS011;69157;53.094;10.016;2024-02-16T03:05:52;2.47;;;1.30;;
54372;SDS011;69157;53.094;10.016;2024-02-16T03:08:18;4.53;;;1.13;;
54372;SDS011;69157;53.094;10.016;2024-02-16T03:10:45;2.83;;;1.30;;
54372;SDS011;69157;53.094;10.016;2024-02-16T03:13:11;2.55;;;1.70;;
54372;SDS011;69157;53.094;10.016;2024-02-16T03:15:39;2.67;;;1.50;;
54372;SDS011;69157;53.094;10.016;2024-02-16T03:18:05;1.38;;;1.23;;
54372;SDS011;69157;53.094;10.016;2024-02-16T03:23:01;3.60;;;1.45;;
54372;SDS011;69157;53.094;10.016;2024-02-16T03:25:28;3.72;;;1.52;;
54372;SDS011;69157;53.094;10.016;2024-02-16T03:27:54;1.98;;;1.30;;
54372;SDS011;69157;53.094;10.016;2024-02-16T03:30:20;1.35;;;1.02;;
54372;SDS011;69157;53.094;10.016;2024-02-16T03:32:49;2.42;;;1.10;;
54372;SDS011;69157;53.094;10.016;2024-02-16T03:35:16;1.95;;;1.52;;
54372;SDS011;69157;53.094;10.016;2024-02-16T03:37:42;4.90;;;1.42;;
54372;SDS011;69157;53.094;10.016;2024-02-16T03:40:08;1.27;;;1.08;;
54372;SDS011;69157;53.094;10.016;2024-02-16T03:42:35;1.35;;;1.17;;
54372;SDS011;69157;53.094;10.016;2024-02-16T03:45:02;1.85;;;1.20;;
54372;SDS011;69157;53.094;10.016;2024-02-16T03:47:28;1.90;;;1.45;;
54372;SDS011;69157;53.094;10.016;2024-02-16T03:49:55;3.17;;;1.30;;
54372;SDS011;69157;53.094;10.016;2024-02-16T03:52:21;1.55;;;1.30;;
54372;SDS011;69157;53.094;10.016;2024-02-16T03:54:47;1.77;;;1.50;;
54372;SDS011;69157;53.094;10.016;2024-02-16T03:57:17;3.13;;;1.45;;
54372;SDS011;69157;53.094;10.016;2024-02-16T03:59:43;2.92;;;1.20;;
54372;SDS011;69157;53.094;10.016;2024-02-16T04:02:10;3.72;;;1.38;;
54372;SDS011;69157;53.094;10.016;2024-02-16T04:04:40;3.83;;;1.45;;
54372;SDS011;69157;53.094;10.016;2024-02-16T04:07:07;1.60;;;1.35;;
54372;SDS011;69157;53.094;10.016;2024-02-16T04:09:33;2.58;;;1.15;;
54372;SDS011;69157;53.094;10.016;2024-02-16T04:12:00;1.55;;;1.02;;
54372;SDS011;69157;53.094;10.016;2024-02-16T04:14:26;3.20;;;1.35;;
54372;SDS011;69157;53.094;10.016;2024-02-16T04:16:52;1.70;;;1.33;;
54372;SDS011;69157;53.094;10.016;2024-02-16T04:19:20;1.60;;;1.02;;
54372;SDS011;69157;53.094;10.016;2024-02-16T04:21:46;2.80;;;1.08;;
54372;SDS011;69157;53.094;10.016;2024-02-16T04:24:12;2.33;;;1.33;;
54372;SDS011;69157;53.094;10.016;2024-02-16T04:26:39;3.15;;;1.60;;
54372;SDS011;69157;53.094;10.016;2024-02-16T04:29:05;1.42;;;1.00;;
54372;SDS011;69157;53.094;10.016;2024-02-16T04:31:31;1.88;;;1.38;;
54372;SDS011;69157;53.094;10.016;2024-02-16T04:33:57;1.83;;;1.20;;
54372;SDS011;69157;53.094;10.016;2024-02-16T04:36:25;1.52;;;1.23;;
54372;SDS011;69157;53.094;10.016;2024-02-16T04:38:52;4.07;;;1.30;;
54372;SDS011;69157;53.094;10.016;2024-02-16T04:41:21;2.92;;;1.50;;
54372;SDS011;69157;53.094;10.016;2024-02-16T04:43:48;2.17;;;1.30;;
54372;SDS011;69157;53.094;10.016;2024-02-16T04:46:15;2.53;;;1.13;;
54372;SDS011;69157;53.094;10.016;2024-02-16T04:48:41;1.23;;;1.13;;
54372;SDS011;69157;53.094;10.016;2024-02-16T04:51:07;1.27;;;0.93;;
54372;SDS011;69157;53.094;10.016;2024-02-16T04:53:35;2.50;;;1.25;;
54372;SDS011;69157;53.094;10.016;2024-02-16T04:56:02;1.88;;;1.30;;
54372;SDS011;69157;53.094;10.016;2024-02-16T04:58:30;1.88;;;1.20;;
54372;SDS011;69157;53.094;10.016;2024-02-16T05:00:57;1.45;;;1.30;;
54372;SDS011;69157;53.094;10.016;2024-02-16T05:03:23;2.08;;;1.40;;
54372;SDS011;69157;53.094;10.016;2024-02-16T05:05:51;1.10;;;1.00;;
54372;SDS011;69157;53.094;10.016;2024-02-16T05:08:17;2.95;;;1.30;;
54372;SDS011;69157;53.094;10.016;2024-02-16T05:10:43;6.07;;;1.48;;
54372;SDS011;69157;53.094;10.016;2024-02-16T05:13:09;1.42;;;1.00;;
54372;SDS011;69157;53.094;10.016;2024-02-16T05:15:38;4.82;;;1.20;;
54372;SDS011;69157;53.094;10.016;2024-02-16T05:18:03;2.15;;;1.45;;
54372;SDS011;69157;53.094;10.016;2024-02-16T05:20:30;4.10;;;1.25;;
54372;SDS011;69157;53.094;10.016;2024-02-16T05:22:55;1.15;;;1.05;;
54372;SDS011;69157;53.094;10.016;2024-02-16T05:25:23;1.05;;;0.90;;
54372;SDS011;69157;53.094;10.016;2024-02-16T05:27:49;2.55;;;1.33;;
54372;SDS011;69157;53.094;10.016;2024-02-16T05:30:15;2.42;;;1.17;;
54372;SDS011;69157;53.094;10.016;2024-02-16T05:32:41;5.18;;;1.25;;
54372;SDS011;69157;53.094;10.016;2024-02-16T05:35:08;2.15;;;1.17;;
54372;SDS011;69157;53.094;10.016;2024-02-16T05:37:38;2.28;;;1.25;;
54372;SDS011;69157;53.094;10.016;2024-02-16T05:40:06;2.42;;;1.17;;
54372;SDS011;69157;53.094;10.016;2024-02-16T05:42:53;1.55;;;1.10;;
54372;SDS011;69157;53.094;10.016;2024-02-16T05:45:19;3.13;;;1.10;;
54372;SDS011;69157;53.094;10.016;2024-02-16T05:47:50;2.05;;;1.20;;
54372;SDS011;69157;53.094;10.016;2024-02-16T05:50:16;3.10;;;1.63;;
54372;SDS011;69157;53.094;10.016;2024-02-16T05:52:43;3.70;;;1.20;;
54372;SDS011;69157;53.094;10.016;2024-02-16T05:55:10;3.28;;;1.20;;
54372;SDS011;69157;53.094;10.016;2024-02-16T05:57:36;1.65;;;1.20;;
54372;SDS011;69157;53.094;10.016;2024-02-16T06:00:03;2.85;;;1.10;;
54372;SDS011;69157;53.094;10.016;2024-02-16T06:02:30;1.15;;;0.90;;
54372;SDS011;69157;53.094;10.016;2024-02-16T06:04:56;2.33;;;1.38;;
54372;SDS011;69157;53.094;10.016;2024-02-16T06:07:22;1.42;;;0.95;;
54372;SDS011;69157;53.094;10.016;2024-02-16T06:09:48;1.50;;;0.95;;
54372;SDS011;69157;53.094;10.016;2024-02-16T06:12:15;1.70;;;1.05;;
54372;SDS011;69157;53.094;10.016;2024-02-16T06:14:41;1.70;;;1.27;;
54372;SDS011;69157;53.094;10.016;2024-02-16T06:17:08;2.17;;;1.33;;
54372;SDS011;69157;53.094;10.016;2024-02-16T06:19:37;1.38;;;1.20;;
54372;SDS011;69157;53.094;10.016;2024-02-16T06:22:05;1.83;;;1.10;;
54372;SDS011;69157;53.094;10.016;2024-02-16T06:24:33;2.38;;;1.20;;
54372;SDS011;69157;53.094;10.016;2024-02-16T06:29:29;3.25;;;1.17;;
54372;SDS011;69157;53.094;10.016;2024-02-16T06:31:55;2.17;;;1.30;;
54372;SDS011;69157;53.094;10.016;2024-02-16T06:34:21;3.25;;;1.08;;
54372;SDS011;69157;53.094;10.016;2024-02-16T06:36:47;2.92;;;1.40;;
54372;SDS011;69157;53.094;10.016;2024-02-16T06:39:15;2.53;;;1.13;;
54372;SDS011;69157;53.094;10.016;2024-02-16T06:41:43;2.45;;;0.95;;
54372;SDS011;69157;53.094;10.016;2024-02-16T06:44:10;2.13;;;1.40;;
54372;SDS011;69157;53.094;10.016;2024-02-16T06:46:36;1.88;;;1.23;;
54372;SDS011;69157;53.094;10.016;2024-02-16T06:49:02;1.98;;;1.08;;
54372;SDS011;69157;53.094;10.016;2024-02-16T06:51:28;1.27;;;1.17;;
54372;SDS011;69157;53.094;10.016;2024-02-16T06:53:54;1.17;;;0.90;;
54372;SDS011;69157;53.094;10.016;2024-02-16T06:56:20;1.55;;;1.02;;
54372;SDS011;69157;53.094;10.016;2024-02-16T06:58:47;2.45;;;1.55;;
54372;SDS011;69157;53.094;10.016;2024-02-16T07:01:13;2.58;;;1.42;;
54372;SDS011;69157;53.094;10.016;2024-02-16T07:03:40;2.38;;;1.10;;
54372;SDS011;69157;53.094;10.016;2024-02-16T07:06:06;2.10;;;1.30;;
54372;SDS011;69157;53.094;10.016;2024-02-16T07:08:35;2.35;;;0.95;;
54372;SDS011;69157;53.094;10.016;2024-02-16T07:11:02;2.00;;;1.02;;
54372;SDS011;69157;53.094;10.016;2024-02-16T07:13:29;1.58;;;1.10;;
54372;SDS011;69157;53.094;10.016;2024-02-16T07:15:55;2.08;;;1.30;;
54372;SDS011;69157;53.094;10.016;2024-02-16T07:18:21;1.60;;;1.17;;
54372;SDS011;69157;53.094;10.016;2024-02-16T07:20:47;3.90;;;1.30;;
54372;SDS011;69157;53.094;10.016;2024-02-16T07:23:13;1.15;;;0.85;;
54372;SDS011;69157;53.094;10.016;2024-02-16T07:25:40;8.90;;;1.35;;
54372;SDS011;69157;53.094;10.016;2024-02-16T07:28:08;1.58;;;1.20;;
54372;SDS011;69157;53.094;10.016;2024-02-16T07:30:35;1.50;;;1.30;;
54372;SDS011;69157;53.094;10.016;2024-02-16T07:33:07;1.83;;;1.10;;
54372;SDS011;69157;53.094;10.016;2024-02-16T07:35:36;1.52;;;1.13;;
54372;SDS011;69157;53.094;10.016;2024-02-16T07:38:03;1.10;;;1.00;;
54372;SDS011;69157;53.094;10.016;2024-02-16T07:40:29;1.17;;;1.08;;
54372;SDS011;69157;53.094;10.016;2024-02-16T07:42:55;1.38;;;1.00;;
54372;SDS011;69157;53.094;10.016;2024-02-16T07:45:22;1.83;;;1.20;;
54372;SDS011;69157;53.094;10.016;2024-02-16T07:47:50;1.27;;;1.10;;
54372;SDS011;69157;53.094;10.016;2024-02-16T07:50:22;1.52;;;1.15;;
54372;SDS011;69157;53.094;10.016;2024-02-16T07:52:48;2.30;;;1.13;;
54372;SDS011;69157;53.094;10.016;2024-02-16T07:55:14;1.67;;;0.90;;
54372;SDS011;69157;53.094;10.016;2024-02-16T07:57:43;1.83;;;0.95;;
54372;SDS011;69157;53.094;10.016;2024-02-16T08:00:09;1.45;;;1.00;;
54372;SDS011;69157;53.094;10.016;2024-02-16T08:02:36;1.00;;;0.93;;
54372;SDS011;69157;53.094;10.016;2024-02-16T08:05:04;1.15;;;0.85;;
54372;SDS011;69157;53.094;10.016;2024-02-16T08:07:31;1.10;;;1.00;;
54372;SDS011;69157;53.094;10.016;2024-02-16T08:09:57;1.15;;;0.98;;
54372;SDS011;69157;53.094;10.016;2024-02-16T08:12:23;2.25;;;1.00;;
54372;SDS011;69157;53.094;10.016;2024-02-16T08:14:50;2.63;;;1.13;;
54372;SDS011;69157;53.094;10.016;2024-02-16T08:17:16;1.90;;;1.20;;
54372;SDS011;69157;53.094;10.016;2024-02-16T08:19:42;0.82;;;0.80;;
54372;SDS011;69157;53.094;10.016;2024-02-16T08:22:08;1.10;;;0.90;;
54372;SDS011;69157;53.094;10.016;2024-02-16T08:24:34;1.50;;;1.00;;
54372;SDS011;69157;53.094;10.016;2024-02-16T08:27:02;1.15;;;1.00;;
54372;SDS011;69157;53.094;10.016;2024-02-16T08:29:29;1.55;;;1.15;;
54372;SDS011;69157;53.094;10.016;2024-02-16T08:31:55;0.90;;;0.68;;
54372;SDS011;69157;53.094;10.016;2024-02-16T08:34:21;1.52;;;0.90;;
54372;SDS011;69157;53.094;10.016;2024-02-16T08:36:51;1.90;;;1.10;;
54372;SDS011;69157;53.094;10.016;2024-02-16T08:39:17;2.63;;;0.90;;
54372;SDS011;69157;53.094;10.016;2024-02-16T08:41:45;1.20;;;1.10;;
54372;SDS011;69157;53.094;10.016;2024-02-16T08:44:14;0.85;;;0.82;;
54372;SDS011;69157;53.094;10.016;2024-02-16T08:46:40;1.48;;;1.08;;
54372;SDS011;69157;53.094;10.016;2024-02-16T08:49:12;1.58;;;1.17;;
54372;SDS011;69157;53.094;10.016;2024-02-16T08:51:38;1.05;;;0.80;;
54372;SDS011;69157;53.094;10.016;2024-02-16T08:54:04;1.88;;;0.80;;
54372;SDS011;69157;53.094;10.016;2024-02-16T08:56:30;2.78;;;1.00;;
54372;SDS011;69157;53.094;10.016;2024-02-16T08:58:57;1.52;;;0.90;;
54372;SDS011;69157;53.094;10.016;2024-02-16T09:01:32;1.38;;;0.98;;
54372;SDS011;69157;53.094;10.016;2024-02-16T09:03:58;1.65;;;1.20;;
54372;SDS011;69157;53.094;10.016;2024-02-16T09:06:25;2.63;;;0.80;;
54372;SDS011;69157;53.094;10.016;2024-02-16T09:08:51;1.08;;;0.80;;
54372;SDS011;69157;53.094;10.016;2024-02-16T09:11:18;1.90;;;1.23;;
54372;SDS011;69157;53.094;10.016;2024-02-16T09:13:44;1.63;;;0.90;;
54372;SDS011;69157;53.094;10.016;2024-02-16T09:16:10;1.25;;;1.00;;
54372;SDS011;69157;53.094;10.016;2024-02-16T09:18:37;1.35;;;1.10;;
54372;SDS011;69157;53.094;10.016;2024-02-16T09:21:03;0.80;;;0.80;;
54372;SDS011;69157;53.094;10.016;2024-02-16T09:23:31;2.42;;;1.10;;
54372;SDS011;69157;53.094;10.016;2024-02-16T09:25:57;2.53;;;1.00;;
54372;SDS011;69157;53.094;10.016;2024-02-16T09:28:24;1.85;;;0.90;;
54372;SDS011;69157;53.094;10.016;2024-02-16T09:30:51;1.60;;;0.95;;
54372;SDS011;69157;53.094;10.016;2024-02-16T09:33:17;1.25;;;0.90;;
54372;SDS011;69157;53.094;10.016;2024-02-16T09:35:43;1.10;;;1.00;;
54372;SDS011;69157;53.094;10.016;2024-02-16T09:38:09;1.85;;;0.95;;
54372;SDS011;69157;53.094;10.016;2024-02-16T09:40:36;1.38;;;0.80;;
54372;SDS011;69157;53.094;10.016;2024-02-16T09:43:02;1.70;;;0.90;;
54372;SDS011;69157;53.094;10.016;2024-02-16T09:45:28;1.10;;;0.93;;
54372;SDS011;69157;53.094;10.016;2024-02-16T09:47:54;3.28;;;1.10;;
54372;SDS011;69157;53.094;10.016;2024-02-16T09:50:22;1.63;;;0.80;;
54372;SDS011;69157;53.094;10.016;2024-02-16T09:52:49;2.28;;;0.88;;
54372;SDS011;69157;53.094;10.016;2024-02-16T09:55:17;2.22;;;0.90;;
54372;SDS011;69157;53.094;10.016;2024-02-16T09:57:43;2.22;;;0.98;;
54372;SDS011;69157;53.094;10.016;2024-02-16T10:00:10;1.40;;;0.90;;
54372;SDS011;69157;53.094;10.016;2024-02-16T10:02:47;1.75;;;0.80;;
54372;SDS011;69157;53.094;10.016;2024-02-16T10:05:14;2.17;;;1.00;;
54372;SDS011;69157;53.094;10.016;2024-02-16T10:07:40;0.95;;;0.73;;
54372;SDS011;69157;53.094;10.016;2024-02-16T10:10:19;1.48;;;1.05;;
54372;SDS011;69157;53.094;10.016;2024-02-16T10:12:47;1.52;;;1.10;;
54372;SDS011;69157;53.094;10.016;2024-02-16T10:15:18;2.20;;;0.98;;
54372;SDS011;69157;53.094;10.016;2024-02-16T10:17:44;1.45;;;0.90;;
54372;SDS011;69157;53.094;10.016;2024-02-16T10:20:17;2.30;;;1.00;;
54372;SDS011;69157;53.094;10.016;2024-02-16T10:22:43;1.80;;;0.90;;
54372;SDS011;69157;53.094;10.016;2024-02-16T10:25:11;2.60;;;1.08;;
54372;SDS011;69157;53.094;10.016;2024-02-16T10:27:38;1.70;;;1.08;;
54372;SDS011;69157;53.094;10.016;2024-02-16T10:30:07;1.80;;;0.93;;
54372;SDS011;69157;53.094;10.016;2024-02-16T10:32:36;1.15;;;0.80;;
54372;SDS011;69157;53.094;10.016;2024-02-16T10:35:02;1.73;;;0.82;;
54372;SDS011;69157;53.094;10.016;2024-02-16T10:37:29;1.48;;;0.90;;
54372;SDS011;69157;53.094;10.016;2024-02-16T10:39:55;1.08;;;0.98;;
54372;SDS011;69157;53.094;10.016;2024-02-16T10:42:22;2.20;;;0.95;;
54372;SDS011;69157;53.094;10.016;2024-02-16T10:44:50;2.28;;;0.80;;
54372;SDS011;69157;53.094;10.016;2024-02-16T10:47:17;0.70;;;0.70;;
54372;SDS011;69157;53.094;10.016;2024-02-16T10:49:43;2.35;;;1.10;;
54372;SDS011;69157;53.094;10.016;2024-02-16T10:52:09;1.05;;;0.88;;
54372;SDS011;69157;53.094;10.016;2024-02-16T10:54:37;1.25;;;0.80;;
54372;SDS011;69157;53.094;10.016;2024-02-16T10:57:07;3.20;;;1.08;;
54372;SDS011;69157;53.094;10.016;2024-02-16T10:59:42;1.42;;;0.93;;
54372;SDS011;69157;53.094;10.016;2024-02-16T11:02:12;1.57;;;0.80;;
54372;SDS011;69157;53.094;10.016;2024-02-16T11:04:39;2.17;;;0.90;;
54372;SDS011;69157;53.094;10.016;2024-02-16T11:07:13;1.27;;;0.90;;
54372;SDS011;69157;53.094;10.016;2024-02-16T11:09:40;1.52;;;0.95;;
54372;SDS011;69157;53.094;10.016;2024-02-16T11:12:07;1.23;;;0.93;;
54372;SDS011;69157;53.094;10.016;2024-02-16T11:19:35;3.30;;;0.93;;
54372;SDS011;69157;53.094;10.016;2024-02-16T11:22:04;4.57;;;1.02;;
54372;SDS011;69157;53.094;10.016;2024-02-16T11:24:33;1.73;;;1.10;;
54372;SDS011;69157;53.094;10.016;2024-02-16T11:27:03;1.48;;;1.08;;
54372;SDS011;69157;53.094;10.016;2024-02-16T11:29:32;5.73;;;0.93;;
54372;SDS011;69157;53.094;10.016;2024-02-16T11:31:59;1.88;;;0.90;;
54372;SDS011;69157;53.094;10.016;2024-02-16T11:34:26;2.25;;;0.90;;
54372;SDS011;69157;53.094;10.016;2024-02-16T11:36:53;0.95;;;0.80;;
54372;SDS011;69157;53.094;10.016;2024-02-16T11:39:19;1.50;;;0.90;;
54372;SDS011;69157;53.094;10.016;2024-02-16T11:41:45;1.50;;;0.90;;
54372;SDS011;69157;53.094;10.016;2024-02-16T11:44:13;1.35;;;1.25;;
54372;SDS011;69157;53.094;10.016;2024-02-16T11:46:41;1.27;;;0.90;;
54372;SDS011;69157;53.094;10.016;2024-02-16T11:49:07;2.95;;;1.13;;
54372;SDS011;69157;53.094;10.016;2024-02-16T11:51:33;1.35;;;1.00;;
54372;SDS011;69157;53.094;10.016;2024-02-16T11:54:00;1.55;;;0.95;;
54372;SDS011;69157;53.094;10.016;2024-02-16T11:56:26;1.40;;;1.10;;
54372;SDS011;69157;53.094;10.016;2024-02-16T11:58:52;2.63;;;1.20;;
54372;SDS011;69157;53.094;10.016;2024-02-16T12:01:18;1.38;;;1.10;;
54372;SDS011;69157;53.094;10.016;2024-02-16T12:03:46;1.55;;;1.10;;
54372;SDS011;69157;53.094;10.016;2024-02-16T12:06:23;2.20;;;1.20;;
54372;SDS011;69157;53.094;10.016;2024-02-16T12:08:49;2.13;;;1.10;;
54372;SDS011;69157;53.094;10.016;2024-02-16T12:11:17;2.03;;;1.23;;
54372;SDS011;69157;53.094;10.016;2024-02-16T12:13:44;1.52;;;1.20;;
54372;SDS011;69157;53.094;10.016;2024-02-16T12:16:10;1.52;;;1.35;;
54372;SDS011;69157;53.094;10.016;2024-02-16T12:18:36;1.25;;;1.10;;
54372;SDS011;69157;53.094;10.016;2024-02-16T12:21:04;2.97;;;1.20;;
54372;SDS011;69157;53.094;10.016;2024-02-16T12:23:35;1.60;;;1.08;;
54372;SDS011;69157;53.094;10.016;2024-02-16T12:26:01;2.13;;;1.08;;
54372;SDS011;69157;53.094;10.016;2024-02-16T12:28:28;3.17;;;1.55;;
54372;SDS011;69157;53.094;10.016;2024-02-16T12:30:56;2.78;;;1.10;;
54372;SDS011;69157;53.094;10.016;2024-02-16T12:33:23;1.45;;;1.13;;
54372;SDS011;69157;53.094;10.016;2024-02-16T12:35:49;1.98;;;1.10;;
54372;SDS011;69157;53.094;10.016;2024-02-16T12:38:15;2.08;;;1.20;;
54372;SDS011;69157;53.094;10.016;2024-02-16T12:40:45;1.42;;;1.20;;
54372;SDS011;69157;53.094;10.016;2024-02-16T12:43:12;1.92;;;1.10;;
54372;SDS011;69157;53.094;10.016;2024-02-16T12:45:39;1.60;;;1.08;;
54372;SDS011;69157;53.094;10.016;2024-02-16T12:48:05;1.55;;;1.30;;
54372;SDS011;69157;53.094;10.016;2024-02-16T12:50:31;2.70;;;1.40;;
54372;SDS011;69157;53.094;10.016;2024-02-16T12:52:58;3.25;;;1.52;;
54372;SDS011;69157;53.094;10.016;2024-02-16T12:55:24;3.95;;;1.30;;
54372;SDS011;69157;53.094;10.016;2024-02-16T12:57:50;2.47;;;1.38;;
54372;SDS011;69157;53.094;10.016;2024-02-16T13:00:16;3.35;;;1.35;;
54372;SDS011;69157;53.094;10.016;2024-02-16T13:02:43;1.95;;;1.30;;
54372;SDS011;69157;53.094;10.016;2024-02-16T13:05:09;2.42;;;1.20;;
54372;SDS011;69157;53.094;10.016;2024-02-16T13:07:36;1.85;;;1.00;;
54372;SDS011;69157;53.094;10.016;2024-02-16T13:10:04;1.58;;;1.48;;
54372;SDS011;69157;53.094;10.016;2024-02-16T13:12:30;3.05;;;1.50;;
54372;SDS011;69157;53.094;10.016;2024-02-16T13:14:56;4.03;;;1.60;;
54372;SDS011;69157;53.094;10.016;2024-02-16T13:17:23;3.45;;;1.55;;
54372;SDS011;69157;53.094;10.016;2024-02-16T13:19:51;1.98;;;1.30;;
54372;SDS011;69157;53.094;10.016;2024-02-16T13:22:17;2.53;;;1.23;;
54372;SDS011;69157;53.094;10.016;2024-02-16T13:24:43;2.47;;;1.45;;
54372;SDS011;69157;53.094;10.016;2024-02-16T13:27:09;3.75;;;1.55;;
54372;SDS011;69157;53.094;10.016;2024-02-16T13:29:35;4.70;;;1.50;;
54372;SDS011;69157;53.094;10.016;2024-02-16T13:32:02;2.05;;;1.40;;
54372;SDS011;69157;53.094;10.016;2024-02-16T13:34:29;2.58;;;1.50;;
54372;SDS011;69157;53.094;10.016;2024-02-16T13:36:55;3.17;;;1.40;;
54372;SDS011;69157;53.094;10.016;2024-02-16T13:39:21;3.38;;;1.40;;
54372;SDS011;69157;53.094;10.016;2024-02-16T13:41:48;2.70;;;1.55;;
54372;SDS011;69157;53.094;10.016;2024-02-16T13:44:16;2.63;;;1.50;;
54372;SDS011;69157;53.094;10.016;2024-02-16T13:46:42;2.78;;;1.60;;
54372;SDS011;69157;53.094;10.016;2024-02-16T13:49:09;3.03;;;1.80;;
54372;SDS011;69157;53.094;10.016;2024-02-16T13:51:35;3.13;;;1.60;;
54372;SDS011;69157;53.094;10.016;2024-02-16T13:54:01;1.98;;;1.50;;
54372;SDS011;69157;53.094;10.016;2024-02-16T13:56:28;2.55;;;1.65;;
54372;SDS011;69157;53.094;10.016;2024-02-16T13:58:55;5.00;;;1.60;;
54372;SDS011;69157;53.094;10.016;2024-02-16T14:01:21;3.75;;;1.80;;
54372;SDS011;69157;53.094;10.016;2024-02-16T14:03:48;2.42;;;1.48;;
54372;SDS011;69157;53.094;10.016;2024-02-16T14:06:15;3.00;;;2.03;;
54372;SDS011;69157;53.094;10.016;2024-02-16T14:08:41;5.00;;;1.90;;
54372;SDS011;69157;53.094;10.016;2024-02-16T14:11:07;3.17;;;1.75;;
54372;SDS011;69157;53.094;10.016;2024-02-16T14:13:34;4.15;;;1.55;;
54372;SDS011;69157;53.094;10.016;2024-02-16T14:16:00;2.40;;;1.40;;
54372;SDS011;69157;53.094;10.016;2024-02-16T14:18:26;4.25;;;1.65;;
54372;SDS011;69157;53.094;10.016;2024-02-16T14:20:52;4.25;;;1.98;;
54372;SDS011;69157;53.094;10.016;2024-02-16T14:23:18;3.40;;;1.48;;
54372;SDS011;69157;53.094;10.016;2024-02-16T14:25:45;2.50;;;1.63;;
54372;SDS011;69157;53.094;10.016;2024-02-16T14:28:12;3.13;;;1.90;;
54372;SDS011;69157;53.094;10.016;2024-02-16T14:30:38;5.13;;;2.17;;
54372;SDS011;69157;53.094;10.016;2024-02-16T14:33:05;5.57;;;1.80;;
54372;SDS011;69157;53.094;10.016;2024-02-16T14:35:31;2.70;;;1.98;;
54372;SDS011;69157;53.094;10.016;2024-02-16T14:38:02;3.00;;;1.80;;
54372;SDS011;69157;53.094;10.016;2024-02-16T14:40:30;8.27;;;2.10;;
54372;SDS011;69157;53.094;10.016;2024-02-16T14:42:56;4.18;;;2.35;;